MMMX

Licenciado Benito Juarez International Airport

Mexico City, Mexico
METAR MMMX 092240Z 12010KT 8SM SCT020TCU SCT200 21/03 A3029 NOSIG RMK 8/203 HZY ISOL AC
Observed Flight Rules
Dec-9 @ 22:40 UTC (an hour ago) Visual Flight Rules
Wind Visibility Clouds
120° at 10 knots 8 miles
  • Scattered at 2,000' AGL
  • Scattered at 20,000' AGL
Temperatures Readings
Current 21°C / 70°F
Dewpoint 3°C / 37°F
Humidity 31%
Altimeter 30.29" Hg
Pressure 1026 hPa
Elevation 2238
METAR MMMX 092240Z 12010KT 8SM SCT020TCU SCT200 21/03 A3029 NOSIG RMK 8/203 HZY ISOL AC
Observed Flight Rules
Dec-9 @ 22:40 UTC
(an hour ago)
VFR
Wind Visibility
120° at 10 knots 8 miles
Clouds
  • Scattered at 2,000' AGL
  • Scattered at 20,000' AGL
Temperature Dewpoint
21°C / 70°F 3°C / 37°F
Humidity Altimeter Pressure
31% 30.29" Hg 1026 hPa